sensor_id;sensor_type;location;lat;lon;timestamp;temperature;humidity
70867;HTU21D;58487;53.474;49.470;2023-07-20T00:02:07;17.72;69.96
70867;HTU21D;58487;53.474;49.470;2023-07-20T00:04:33;17.72;70.81
70867;HTU21D;58487;53.474;49.470;2023-07-20T00:07:00;17.75;69.20
70867;HTU21D;58487;53.474;49.470;2023-07-20T00:09:28;17.74;69.39
70867;HTU21D;58487;53.474;49.470;2023-07-20T00:11:55;17.72;69.04
70867;HTU21D;58487;53.474;49.470;2023-07-20T00:14:21;17.70;67.23
70867;HTU21D;58487;53.474;49.470;2023-07-20T00:16:49;17.74;69.64
70867;HTU21D;58487;53.474;49.470;2023-07-20T00:19:25;17.74;69.27
70867;HTU21D;58487;53.474;49.470;2023-07-20T00:21:52;17.75;68.51
70867;HTU21D;58487;53.474;49.470;2023-07-20T00:24:18;17.73;67.88
70867;HTU21D;58487;53.474;49.470;2023-07-20T00:26:44;17.69;68.92
70867;HTU21D;58487;53.474;49.470;2023-07-20T00:29:10;17.65;69.00
70867;HTU21D;58487;53.474;49.470;2023-07-20T00:31:36;17.75;70.39
70867;HTU21D;58487;53.474;49.470;2023-07-20T00:34:03;17.76;67.91
70867;HTU21D;58487;53.474;49.470;2023-07-20T00:36:29;17.79;66.96
70867;HTU21D;58487;53.474;49.470;2023-07-20T00:38:55;17.77;67.75
70867;HTU21D;58487;53.474;49.470;2023-07-20T00:41:22;17.76;68.17
70867;HTU21D;58487;53.474;49.470;2023-07-20T00:43:48;17.75;68.27
70867;HTU21D;58487;53.474;49.470;2023-07-20T00:46:14;17.77;68.12
70867;HTU21D;58487;53.474;49.470;2023-07-20T00:48:41;17.75;67.13
70867;HTU21D;58487;53.474;49.470;2023-07-20T00:51:08;17.74;67.16
70867;HTU21D;58487;53.474;49.470;2023-07-20T00:53:35;17.74;68.82
70867;HTU21D;58487;53.474;49.470;2023-07-20T00:56:01;17.73;69.38
70867;HTU21D;58487;53.474;49.470;2023-07-20T00:58:27;17.73;69.82
70867;HTU21D;58487;53.474;49.470;2023-07-20T01:00:53;17.75;70.10
70867;HTU21D;58487;53.474;49.470;2023-07-20T01:03:20;17.75;69.60
70867;HTU21D;58487;53.474;49.470;2023-07-20T01:06:12;17.72;67.88
70867;HTU21D;58487;53.474;49.470;2023-07-20T01:08:52;17.70;68.87
70867;HTU21D;58487;53.474;49.470;2023-07-20T01:11:31;17.68;68.51
70867;HTU21D;58487;53.474;49.470;2023-07-20T01:13:59;17.70;70.95
70867;HTU21D;58487;53.474;49.470;2023-07-20T01:16:27;17.74;72.62
70867;HTU21D;58487;53.474;49.470;2023-07-20T01:18:53;17.74;70.83
70867;HTU21D;58487;53.474;49.470;2023-07-20T01:21:31;17.76;71.87
70867;HTU21D;58487;53.474;49.470;2023-07-20T01:24:31;17.73;68.34
70867;HTU21D;58487;53.474;49.470;2023-07-20T01:27:22;17.81;69.74
70867;HTU21D;58487;53.474;49.470;2023-07-20T01:32:36;17.92;68.65
70867;HTU21D;58487;53.474;49.470;2023-07-20T01:35:05;17.93;69.13
70867;HTU21D;58487;53.474;49.470;2023-07-20T01:37:32;17.95;69.43
70867;HTU21D;58487;53.474;49.470;2023-07-20T01:39:59;17.92;71.68
70867;HTU21D;58487;53.474;49.470;2023-07-20T01:42:26;17.88;68.42
70867;HTU21D;58487;53.474;49.470;2023-07-20T01:44:52;17.89;68.50
70867;HTU21D;58487;53.474;49.470;2023-07-20T01:47:19;17.89;70.24
70867;HTU21D;58487;53.474;49.470;2023-07-20T01:49:45;17.89;68.41
70867;HTU21D;58487;53.474;49.470;2023-07-20T01:52:11;17.89;67.43
70867;HTU21D;58487;53.474;49.470;2023-07-20T01:54:37;17.89;68.78
70867;HTU21D;58487;53.474;49.470;2023-07-20T01:57:03;17.83;70.66
70867;HTU21D;58487;53.474;49.470;2023-07-20T01:59:29;17.83;71.34
70867;HTU21D;58487;53.474;49.470;2023-07-20T02:01:55;17.78;71.30
70867;HTU21D;58487;53.474;49.470;2023-07-20T02:04:21;17.72;68.36
70867;HTU21D;58487;53.474;49.470;2023-07-20T02:06:47;17.74;70.20
70867;HTU21D;58487;53.474;49.470;2023-07-20T02:09:13;17.70;68.46
70867;HTU21D;58487;53.474;49.470;2023-07-20T02:11:39;17.73;70.35
70867;HTU21D;58487;53.474;49.470;2023-07-20T02:14:05;17.69;70.81
70867;HTU21D;58487;53.474;49.470;2023-07-20T02:16:31;17.69;69.90
70867;HTU21D;58487;53.474;49.470;2023-07-20T02:18:57;17.67;69.60
70867;HTU21D;58487;53.474;49.470;2023-07-20T02:21:24;17.62;68.82
70867;HTU21D;58487;53.474;49.470;2023-07-20T02:23:50;17.62;71.00
70867;HTU21D;58487;53.474;49.470;2023-07-20T02:26:16;17.65;71.81
70867;HTU21D;58487;53.474;49.470;2023-07-20T02:28:42;17.59;70.93
70867;HTU21D;58487;53.474;49.470;2023-07-20T02:31:08;17.52;69.87
70867;HTU21D;58487;53.474;49.470;2023-07-20T02:33:34;17.52;73.48
70867;HTU21D;58487;53.474;49.470;2023-07-20T02:36:00;17.55;72.17
70867;HTU21D;58487;53.474;49.470;2023-07-20T02:38:26;17.52;72.46
70867;HTU21D;58487;53.474;49.470;2023-07-20T02:40:52;17.49;70.51
70867;HTU21D;58487;53.474;49.470;2023-07-20T02:43:18;17.53;71.33
70867;HTU21D;58487;53.474;49.470;2023-07-20T02:45:44;17.48;70.39
70867;HTU21D;58487;53.474;49.470;2023-07-20T02:48:10;17.46;70.60
70867;HTU21D;58487;53.474;49.470;2023-07-20T02:50:36;17.47;71.34
70867;HTU21D;58487;53.474;49.470;2023-07-20T02:53:02;17.49;72.22
70867;HTU21D;58487;53.474;49.470;2023-07-20T02:55:28;17.53;71.35
70867;HTU21D;58487;53.474;49.470;2023-07-20T02:57:54;17.68;71.57
70867;HTU21D;58487;53.474;49.470;2023-07-20T03:00:20;17.66;71.36
70867;HTU21D;58487;53.474;49.470;2023-07-20T03:02:48;17.62;72.61
70867;HTU21D;58487;53.474;49.470;2023-07-20T03:05:16;17.64;73.40
70867;HTU21D;58487;53.474;49.470;2023-07-20T03:07:42;17.66;73.22
70867;HTU21D;58487;53.474;49.470;2023-07-20T03:10:09;17.63;71.33
70867;HTU21D;58487;53.474;49.470;2023-07-20T03:12:35;17.64;71.93
70867;HTU21D;58487;53.474;49.470;2023-07-20T03:15:02;17.60;71.50
70867;HTU21D;58487;53.474;49.470;2023-07-20T03:17:28;17.64;73.39
70867;HTU21D;58487;53.474;49.470;2023-07-20T03:19:54;17.69;71.44
70867;HTU21D;58487;53.474;49.470;2023-07-20T03:22:21;17.72;70.50
70867;HTU21D;58487;53.474;49.470;2023-07-20T03:24:47;17.68;71.07
70867;HTU21D;58487;53.474;49.470;2023-07-20T03:27:16;17.76;70.71
70867;HTU21D;58487;53.474;49.470;2023-07-20T03:29:43;17.77;71.19
70867;HTU21D;58487;53.474;49.470;2023-07-20T03:32:10;17.76;70.51
70867;HTU21D;58487;53.474;49.470;2023-07-20T03:34:36;17.80;70.73
70867;HTU21D;58487;53.474;49.470;2023-07-20T03:37:02;17.79;70.43
70867;HTU21D;58487;53.474;49.470;2023-07-20T03:39:30;17.81;68.89
70867;HTU21D;58487;53.474;49.470;2023-07-20T03:41:57;17.84;70.76
70867;HTU21D;58487;53.474;49.470;2023-07-20T03:44:24;17.94;69.63
70867;HTU21D;58487;53.474;49.470;2023-07-20T03:46:50;17.91;69.52
70867;HTU21D;58487;53.474;49.470;2023-07-20T03:49:16;17.92;69.19
70867;HTU21D;58487;53.474;49.470;2023-07-20T03:51:43;17.90;67.44
70867;HTU21D;58487;53.474;49.470;2023-07-20T03:54:09;17.94;70.23
70867;HTU21D;58487;53.474;49.470;2023-07-20T03:56:35;17.97;69.36
70867;HTU21D;58487;53.474;49.470;2023-07-20T03:59:01;18.04;69.19
70867;HTU21D;58487;53.474;49.470;2023-07-20T04:01:28;18.18;70.59
70867;HTU21D;58487;53.474;49.470;2023-07-20T04:03:54;18.21;71.00
70867;HTU21D;58487;53.474;49.470;2023-07-20T04:06:20;18.26;68.10
70867;HTU21D;58487;53.474;49.470;2023-07-20T04:08:46;18.22;67.81
70867;HTU21D;58487;53.474;49.470;2023-07-20T04:11:13;18.18;67.30
70867;HTU21D;58487;53.474;49.470;2023-07-20T04:13:39;18.27;68.42
70867;HTU21D;58487;53.474;49.470;2023-07-20T04:16:05;18.29;64.70
70867;HTU21D;58487;53.474;49.470;2023-07-20T04:18:31;18.32;64.91
70867;HTU21D;58487;53.474;49.470;2023-07-20T04:20:57;18.36;64.47
70867;HTU21D;58487;53.474;49.470;2023-07-20T04:23:23;18.37;65.97
70867;HTU21D;58487;53.474;49.470;2023-07-20T04:25:49;18.32;64.59
70867;HTU21D;58487;53.474;49.470;2023-07-20T04:28:15;18.32;64.19
70867;HTU21D;58487;53.474;49.470;2023-07-20T04:30:42;18.36;66.28
70867;HTU21D;58487;53.474;49.470;2023-07-20T04:33:08;18.33;65.69
70867;HTU21D;58487;53.474;49.470;2023-07-20T04:35:54;18.37;66.25
70867;HTU21D;58487;53.474;49.470;2023-07-20T04:38:20;18.41;63.88
70867;HTU21D;58487;53.474;49.470;2023-07-20T04:40:48;18.44;66.63
70867;HTU21D;58487;53.474;49.470;2023-07-20T04:43:15;18.51;64.77
70867;HTU21D;58487;53.474;49.470;2023-07-20T04:45:41;18.55;66.72
70867;HTU21D;58487;53.474;49.470;2023-07-20T04:48:12;18.56;64.64
70867;HTU21D;58487;53.474;49.470;2023-07-20T04:50:42;18.62;64.79
70867;HTU21D;58487;53.474;49.470;2023-07-20T04:53:09;18.65;64.88
70867;HTU21D;58487;53.474;49.470;2023-07-20T04:55:38;18.68;64.28
70867;HTU21D;58487;53.474;49.470;2023-07-20T04:58:05;18.73;66.06
70867;HTU21D;58487;53.474;49.470;2023-07-20T05:00:35;18.77;65.44
70867;HTU21D;58487;53.474;49.470;2023-07-20T05:03:01;18.77;64.27
70867;HTU21D;58487;53.474;49.470;2023-07-20T05:05:27;18.88;65.53
70867;HTU21D;58487;53.474;49.470;2023-07-20T05:07:53;18.91;64.05
70867;HTU21D;58487;53.474;49.470;2023-07-20T05:10:19;18.98;64.11
70867;HTU21D;58487;53.474;49.470;2023-07-20T05:12:45;18.93;64.03
70867;HTU21D;58487;53.474;49.470;2023-07-20T05:15:11;18.99;64.80
70867;HTU21D;58487;53.474;49.470;2023-07-20T05:17:37;19.08;64.43
70867;HTU21D;58487;53.474;49.470;2023-07-20T05:20:05;19.23;63.16
70867;HTU21D;58487;53.474;49.470;2023-07-20T05:22:32;19.26;63.39
70867;HTU21D;58487;53.474;49.470;2023-07-20T05:24:59;19.26;63.85
70867;HTU21D;58487;53.474;49.470;2023-07-20T05:27:25;19.30;62.75
70867;HTU21D;58487;53.474;49.470;2023-07-20T05:29:50;19.27;61.30
70867;HTU21D;58487;53.474;49.470;2023-07-20T05:32:17;19.28;59.74
70867;HTU21D;58487;53.474;49.470;2023-07-20T05:34:43;19.40;60.34
70867;HTU21D;58487;53.474;49.470;2023-07-20T05:37:09;19.52;62.07
70867;HTU21D;58487;53.474;49.470;2023-07-20T05:39:35;19.65;61.26
70867;HTU21D;58487;53.474;49.470;2023-07-20T05:42:01;19.76;62.16
70867;HTU21D;58487;53.474;49.470;2023-07-20T05:44:27;19.72;57.20
70867;HTU21D;58487;53.474;49.470;2023-07-20T05:46:53;19.82;58.03
70867;HTU21D;58487;53.474;49.470;2023-07-20T05:49:19;19.82;58.01
70867;HTU21D;58487;53.474;49.470;2023-07-20T05:51:45;19.79;60.94
70867;HTU21D;58487;53.474;49.470;2023-07-20T05:54:12;19.80;59.53
70867;HTU21D;58487;53.474;49.470;2023-07-20T05:56:38;19.92;57.15
70867;HTU21D;58487;53.474;49.470;2023-07-20T05:59:04;20.07;56.56
70867;HTU21D;58487;53.474;49.470;2023-07-20T06:01:30;20.22;57.28
70867;HTU21D;58487;53.474;49.470;2023-07-20T06:03:57;20.10;56.31
70867;HTU21D;58487;53.474;49.470;2023-07-20T06:06:23;20.02;55.56
70867;HTU21D;58487;53.474;49.470;2023-07-20T06:08:49;20.13;53.75
70867;HTU21D;58487;53.474;49.470;2023-07-20T06:11:15;20.14;56.83
70867;HTU21D;58487;53.474;49.470;2023-07-20T06:13:42;20.22;54.56
70867;HTU21D;58487;53.474;49.470;2023-07-20T06:16:09;20.30;56.89
70867;HTU21D;58487;53.474;49.470;2023-07-20T06:18:35;20.34;55.39
70867;HTU21D;58487;53.474;49.470;2023-07-20T06:21:01;20.34;56.22
70867;HTU21D;58487;53.474;49.470;2023-07-20T06:23:27;20.39;57.66
70867;HTU21D;58487;53.474;49.470;2023-07-20T06:25:53;20.53;54.65
70867;HTU21D;58487;53.474;49.470;2023-07-20T06:28:19;20.50;52.38
70867;HTU21D;58487;53.474;49.470;2023-07-20T06:30:45;20.50;56.47
70867;HTU21D;58487;53.474;49.470;2023-07-20T06:33:11;20.56;58.11
70867;HTU21D;58487;53.474;49.470;2023-07-20T06:35:37;20.61;52.05
70867;HTU21D;58487;53.474;49.470;2023-07-20T06:38:03;20.69;53.10
70867;HTU21D;58487;53.474;49.470;2023-07-20T06:40:32;20.73;52.27
70867;HTU21D;58487;53.474;49.470;2023-07-20T06:42:58;20.76;55.75
70867;HTU21D;58487;53.474;49.470;2023-07-20T06:45:28;20.78;51.94
70867;HTU21D;58487;53.474;49.470;2023-07-20T06:47:54;20.77;54.22
70867;HTU21D;58487;53.474;49.470;2023-07-20T06:50:20;20.87;55.23
70867;HTU21D;58487;53.474;49.470;2023-07-20T06:52:46;20.98;55.04
70867;HTU21D;58487;53.474;49.470;2023-07-20T06:55:13;20.93;53.61
70867;HTU21D;58487;53.474;49.470;2023-07-20T06:57:40;21.00;53.78
70867;HTU21D;58487;53.474;49.470;2023-07-20T07:00:06;20.94;50.89
70867;HTU21D;58487;53.474;49.470;2023-07-20T07:02:32;21.04;54.30
70867;HTU21D;58487;53.474;49.470;2023-07-20T07:05:00;21.03;52.48
70867;HTU21D;58487;53.474;49.470;2023-07-20T07:07:25;21.17;52.03
70867;HTU21D;58487;53.474;49.470;2023-07-20T07:09:52;21.32;51.64
70867;HTU21D;58487;53.474;49.470;2023-07-20T07:12:18;21.29;50.17
70867;HTU21D;58487;53.474;49.470;2023-07-20T07:14:43;21.28;52.08
70867;HTU21D;58487;53.474;49.470;2023-07-20T07:17:09;21.32;48.37
70867;HTU21D;58487;53.474;49.470;2023-07-20T07:19:35;21.36;49.22
70867;HTU21D;58487;53.474;49.470;2023-07-20T07:22:04;21.37;48.56
70867;HTU21D;58487;53.474;49.470;2023-07-20T07:24:30;21.53;53.91
70867;HTU21D;58487;53.474;49.470;2023-07-20T07:27:00;21.58;50.14
70867;HTU21D;58487;53.474;49.470;2023-07-20T07:29:26;21.62;50.46
70867;HTU21D;58487;53.474;49.470;2023-07-20T07:31:52;21.67;50.98
70867;HTU21D;58487;53.474;49.470;2023-07-20T07:34:18;21.72;49.32
70867;HTU21D;58487;53.474;49.470;2023-07-20T07:36:44;21.69;48.15
70867;HTU21D;58487;53.474;49.470;2023-07-20T07:39:11;21.76;49.42
70867;HTU21D;58487;53.474;49.470;2023-07-20T07:41:37;21.75;45.73
70867;HTU21D;58487;53.474;49.470;2023-07-20T07:44:03;21.94;50.48
70867;HTU21D;58487;53.474;49.470;2023-07-20T07:46:29;21.99;50.99
70867;HTU21D;58487;53.474;49.470;2023-07-20T07:48:55;22.11;48.21
70867;HTU21D;58487;53.474;49.470;2023-07-20T07:51:21;22.10;45.23
70867;HTU21D;58487;53.474;49.470;2023-07-20T07:53:47;22.17;49.35
70867;HTU21D;58487;53.474;49.470;2023-07-20T07:56:14;22.05;48.64
70867;HTU21D;58487;53.474;49.470;2023-07-20T07:58:40;21.93;49.63
70867;HTU21D;58487;53.474;49.470;2023-07-20T08:01:08;21.82;48.85
70867;HTU21D;58487;53.474;49.470;2023-07-20T08:03:34;21.93;49.22
70867;HTU21D;58487;53.474;49.470;2023-07-20T08:06:02;22.22;49.71
70867;HTU21D;58487;53.474;49.470;2023-07-20T08:08:31;22.29;45.99
70867;HTU21D;58487;53.474;49.470;2023-07-20T08:10:58;22.31;47.62
70867;HTU21D;58487;53.474;49.470;2023-07-20T08:13:24;22.37;46.41
70867;HTU21D;58487;53.474;49.470;2023-07-20T08:15:51;22.42;44.45
70867;HTU21D;58487;53.474;49.470;2023-07-20T08:18:17;22.43;45.45
70867;HTU21D;58487;53.474;49.470;2023-07-20T08:20:44;22.44;47.08
70867;HTU21D;58487;53.474;49.470;2023-07-20T08:23:12;22.49;49.46
70867;HTU21D;58487;53.474;49.470;2023-07-20T08:25:40;22.63;47.96
70867;HTU21D;58487;53.474;49.470;2023-07-20T08:28:14;22.58;42.34
70867;HTU21D;58487;53.474;49.470;2023-07-20T08:30:47;22.62;44.92
70867;HTU21D;58487;53.474;49.470;2023-07-20T08:33:14;22.70;48.61
70867;HTU21D;58487;53.474;49.470;2023-07-20T08:35:41;22.63;44.78
70867;HTU21D;58487;53.474;49.470;2023-07-20T08:38:07;22.62;42.48
70867;HTU21D;58487;53.474;49.470;2023-07-20T08:40:38;22.86;40.71
70867;HTU21D;58487;53.474;49.470;2023-07-20T08:43:06;23.07;41.00
70867;HTU21D;58487;53.474;49.470;2023-07-20T08:45:36;22.91;44.03
70867;HTU21D;58487;53.474;49.470;2023-07-20T08:48:05;22.99;43.36
70867;HTU21D;58487;53.474;49.470;2023-07-20T08:50:32;23.02;43.70
70867;HTU21D;58487;53.474;49.470;2023-07-20T08:52:59;22.93;42.11
70867;HTU21D;58487;53.474;49.470;2023-07-20T08:55:27;22.91;41.88
70867;HTU21D;58487;53.474;49.470;2023-07-20T08:57:54;22.95;43.09
70867;HTU21D;58487;53.474;49.470;2023-07-20T09:00:22;23.06;42.48
70867;HTU21D;58487;53.474;49.470;2023-07-20T09:02:50;23.08;43.14
70867;HTU21D;58487;53.474;49.470;2023-07-20T09:05:21;23.09;42.28
70867;HTU21D;58487;53.474;49.470;2023-07-20T09:07:51;23.18;43.55
70867;HTU21D;58487;53.474;49.470;2023-07-20T09:10:23;23.59;40.62
70867;HTU21D;58487;53.474;49.470;2023-07-20T09:12:50;23.79;40.70
70867;HTU21D;58487;53.474;49.470;2023-07-20T09:15:16;23.60;44.80
70867;HTU21D;58487;53.474;49.470;2023-07-20T09:17:50;23.40;41.71
70867;HTU21D;58487;53.474;49.470;2023-07-20T09:20:17;23.35;43.17
70867;HTU21D;58487;53.474;49.470;2023-07-20T09:22:44;23.54;41.39
70867;HTU21D;58487;53.474;49.470;2023-07-20T09:25:15;23.77;38.37
70867;HTU21D;58487;53.474;49.470;2023-07-20T09:27:43;23.46;39.49
70867;HTU21D;58487;53.474;49.470;2023-07-20T09:30:10;23.29;42.26
70867;HTU21D;58487;53.474;49.470;2023-07-20T09:32:40;23.21;47.25
70867;HTU21D;58487;53.474;49.470;2023-07-20T09:35:12;23.17;39.44
70867;HTU21D;58487;53.474;49.470;2023-07-20T09:37:39;23.11;42.97
70867;HTU21D;58487;53.474;49.470;2023-07-20T09:40:07;23.07;42.06
70867;HTU21D;58487;53.474;49.470;2023-07-20T09:42:36;23.05;43.31
70867;HTU21D;58487;53.474;49.470;2023-07-20T09:45:07;23.06;46.98
70867;HTU21D;58487;53.474;49.470;2023-07-20T09:47:36;23.01;41.59
70867;HTU21D;58487;53.474;49.470;2023-07-20T09:50:03;23.05;40.49
70867;HTU21D;58487;53.474;49.470;2023-07-20T09:52:30;23.23;43.73
70867;HTU21D;58487;53.474;49.470;2023-07-20T09:54:57;23.61;42.41
70867;HTU21D;58487;53.474;49.470;2023-07-20T09:57:23;24.18;41.51
70867;HTU21D;58487;53.474;49.470;2023-07-20T09:59:49;24.47;40.00
70867;HTU21D;58487;53.474;49.470;2023-07-20T10:02:25;24.40;43.25
70867;HTU21D;58487;53.474;49.470;2023-07-20T10:04:54;24.74;40.42
70867;HTU21D;58487;53.474;49.470;2023-07-20T10:07:21;25.16;36.97
70867;HTU21D;58487;53.474;49.470;2023-07-20T10:09:51;25.07;40.06
70867;HTU21D;58487;53.474;49.470;2023-07-20T10:12:19;24.56;40.71
70867;HTU21D;58487;53.474;49.470;2023-07-20T10:15:17;24.06;44.34
70867;HTU21D;58487;53.474;49.470;2023-07-20T10:17:57;23.89;48.43
70867;HTU21D;58487;53.474;49.470;2023-07-20T10:20:23;23.91;45.38
70867;HTU21D;58487;53.474;49.470;2023-07-20T10:22:53;23.83;40.77
70867;HTU21D;58487;53.474;49.470;2023-07-20T10:25:21;24.45;41.47
70867;HTU21D;58487;53.474;49.470;2023-07-20T10:27:48;24.90;41.26
70867;HTU21D;58487;53.474;49.470;2023-07-20T10:30:14;24.86;39.79
70867;HTU21D;58487;53.474;49.470;2023-07-20T10:32:41;25.02;39.91
70867;HTU21D;58487;53.474;49.470;2023-07-20T10:35:15;25.28;40.05
70867;HTU21D;58487;53.474;49.470;2023-07-20T10:37:56;25.42;40.26
70867;HTU21D;58487;53.474;49.470;2023-07-20T10:40:30;25.54;41.63
70867;HTU21D;58487;53.474;49.470;2023-07-20T10:43:07;25.49;38.49
70867;HTU21D;58487;53.474;49.470;2023-07-20T10:45:42;25.63;42.69
70867;HTU21D;58487;53.474;49.470;2023-07-20T10:48:29;25.48;38.94
70867;HTU21D;58487;53.474;49.470;2023-07-20T10:51:20;25.71;39.99
70867;HTU21D;58487;53.474;49.470;2023-07-20T10:53:48;25.90;39.34
70867;HTU21D;58487;53.474;49.470;2023-07-20T10:56:20;25.47;37.24
70867;HTU21D;58487;53.474;49.470;2023-07-20T10:58:46;25.02;38.82
70867;HTU21D;58487;53.474;49.470;2023-07-20T11:01:21;24.87;36.89
70867;HTU21D;58487;53.474;49.470;2023-07-20T11:03:50;25.10;37.01
70867;HTU21D;58487;53.474;49.470;2023-07-20T11:09:12;25.00;38.57
70867;HTU21D;58487;53.474;49.470;2023-07-20T11:11:43;24.91;39.28
70867;HTU21D;58487;53.474;49.470;2023-07-20T11:14:19;25.23;37.94
70867;HTU21D;58487;53.474;49.470;2023-07-20T11:16:47;25.42;39.55
70867;HTU21D;58487;53.474;49.470;2023-07-20T11:19:19;24.98;42.40
70867;HTU21D;58487;53.474;49.470;2023-07-20T11:21:47;24.63;42.77
70867;HTU21D;58487;53.474;49.470;2023-07-20T11:24:15;24.46;40.09
70867;HTU21D;58487;53.474;49.470;2023-07-20T11:26:48;24.64;42.57
70867;HTU21D;58487;53.474;49.470;2023-07-20T11:29:16;25.29;36.68
70867;HTU21D;58487;53.474;49.470;2023-07-20T11:31:43;25.75;36.29
70867;HTU21D;58487;53.474;49.470;2023-07-20T11:34:14;26.03;41.49
70867;HTU21D;58487;53.474;49.470;2023-07-20T11:36:42;25.94;35.55
70867;HTU21D;58487;53.474;49.470;2023-07-20T11:39:09;25.97;36.34
70867;HTU21D;58487;53.474;49.470;2023-07-20T11:41:36;26.15;36.02
70867;HTU21D;58487;53.474;49.470;2023-07-20T11:44:02;26.30;31.67
70867;HTU21D;58487;53.474;49.470;2023-07-20T11:46:28;26.46;37.17
70867;HTU21D;58487;53.474;49.470;2023-07-20T11:49:01;26.50;34.03
70867;HTU21D;58487;53.474;49.470;2023-07-20T11:51:31;26.69;34.31
70867;HTU21D;58487;53.474;49.470;2023-07-20T11:53:57;26.25;35.17
70867;HTU21D;58487;53.474;49.470;2023-07-20T11:56:25;26.05;37.40
70867;HTU21D;58487;53.474;49.470;2023-07-20T11:58:55;26.46;38.71
70867;HTU21D;58487;53.474;49.470;2023-07-20T12:01:23;26.30;40.52
70867;HTU21D;58487;53.474;49.470;2023-07-20T12:03:49;25.79;36.21
70867;HTU21D;58487;53.474;49.470;2023-07-20T12:06:16;25.47;39.53
70867;HTU21D;58487;53.474;49.470;2023-07-20T12:08:43;25.12;42.60
70867;HTU21D;58487;53.474;49.470;2023-07-20T12:11:10;24.88;42.45
70867;HTU21D;58487;53.474;49.470;2023-07-20T12:13:43;24.70;43.23
70867;HTU21D;58487;53.474;49.470;2023-07-20T12:16:14;24.56;46.40
70867;HTU21D;58487;53.474;49.470;2023-07-20T12:18:43;24.54;44.32
70867;HTU21D;58487;53.474;49.470;2023-07-20T12:21:09;24.55;44.79
70867;HTU21D;58487;53.474;49.470;2023-07-20T12:23:40;24.55;44.03
70867;HTU21D;58487;53.474;49.470;2023-07-20T12:26:08;24.63;43.10
70867;HTU21D;58487;53.474;49.470;2023-07-20T12:28:40;24.78;45.12
70867;HTU21D;58487;53.474;49.470;2023-07-20T12:31:10;24.99;41.35
70867;HTU21D;58487;53.474;49.470;2023-07-20T12:33:39;25.80;40.22
70867;HTU21D;58487;53.474;49.470;2023-07-20T12:36:05;26.17;39.68
70867;HTU21D;58487;53.474;49.470;2023-07-20T12:38:31;25.74;40.31
70867;HTU21D;58487;53.474;49.470;2023-07-20T12:40:58;26.10;41.74
70867;HTU21D;58487;53.474;49.470;2023-07-20T12:43:25;26.63;37.09
70867;HTU21D;58487;53.474;49.470;2023-07-20T12:45:51;26.87;36.82
70867;HTU21D;58487;53.474;49.470;2023-07-20T12:48:17;26.98;37.01
70867;HTU21D;58487;53.474;49.470;2023-07-20T12:50:43;27.20;36.21
70867;HTU21D;58487;53.474;49.470;2023-07-20T12:53:10;27.22;37.73
70867;HTU21D;58487;53.474;49.470;2023-07-20T12:55:37;27.29;38.20
70867;HTU21D;58487;53.474;49.470;2023-07-20T12:58:04;27.39;38.34
70867;HTU21D;58487;53.474;49.470;2023-07-20T13:00:30;26.60;39.27
70867;HTU21D;58487;53.474;49.470;2023-07-20T13:02:56;25.93;38.03
70867;HTU21D;58487;53.474;49.470;2023-07-20T13:05:22;25.60;39.97
70867;HTU21D;58487;53.474;49.470;2023-07-20T13:07:48;25.40;34.02
70867;HTU21D;58487;53.474;49.470;2023-07-20T13:10:14;25.35;39.59
70867;HTU21D;58487;53.474;49.470;2023-07-20T13:12:40;25.29;39.35
70867;HTU21D;58487;53.474;49.470;2023-07-20T13:15:07;25.30;38.88
70867;HTU21D;58487;53.474;49.470;2023-07-20T13:17:37;25.28;41.16
70867;HTU21D;58487;53.474;49.470;2023-07-20T13:20:06;25.19;40.51
70867;HTU21D;58487;53.474;49.470;2023-07-20T13:22:34;25.17;40.71
70867;HTU21D;58487;53.474;49.470;2023-07-20T13:25:00;25.51;39.31
70867;HTU21D;58487;53.474;49.470;2023-07-20T13:27:26;25.84;37.70
70867;HTU21D;58487;53.474;49.470;2023-07-20T13:29:53;25.92;36.80
70867;HTU21D;58487;53.474;49.470;2023-07-20T13:32:19;25.73;37.34
70867;HTU21D;58487;53.474;49.470;2023-07-20T13:34:45;25.44;36.21
70867;HTU21D;58487;53.474;49.470;2023-07-20T13:37:12;25.37;37.08
70867;HTU21D;58487;53.474;49.470;2023-07-20T13:39:38;25.32;37.52
70867;HTU21D;58487;53.474;49.470;2023-07-20T13:42:05;25.25;37.74
70867;HTU21D;58487;53.474;49.470;2023-07-20T13:44:32;25.27;35.89
70867;HTU21D;58487;53.474;49.470;2023-07-20T13:46:58;25.62;35.53
70867;HTU21D;58487;53.474;49.470;2023-07-20T13:49:24;25.61;35.63
70867;HTU21D;58487;53.474;49.470;2023-07-20T13:51:50;25.47;35.35
70867;HTU21D;58487;53.474;49.470;2023-07-20T13:54:16;25.40;35.88
70867;HTU21D;58487;53.474;49.470;2023-07-20T13:56:42;25.44;37.04
70867;HTU21D;58487;53.474;49.470;2023-07-20T13:59:08;26.17;37.07
70867;HTU21D;58487;53.474;49.470;2023-07-20T14:01:34;26.71;35.63
70867;HTU21D;58487;53.474;49.470;2023-07-20T14:04:01;27.22;35.34
70867;HTU21D;58487;53.474;49.470;2023-07-20T14:06:30;27.64;37.71
70867;HTU21D;58487;53.474;49.470;2023-07-20T14:08:56;27.93;37.22
70867;HTU21D;58487;53.474;49.470;2023-07-20T14:11:23;28.18;37.32
70867;HTU21D;58487;53.474;49.470;2023-07-20T14:13:53;27.90;39.24
70867;HTU21D;58487;53.474;49.470;2023-07-20T14:16:22;28.08;39.68
70867;HTU21D;58487;53.474;49.470;2023-07-20T14:18:48;28.11;37.08
70867;HTU21D;58487;53.474;49.470;2023-07-20T14:21:16;28.11;37.35
70867;HTU21D;58487;53.474;49.470;2023-07-20T14:23:45;27.74;37.39
70867;HTU21D;58487;53.474;49.470;2023-07-20T14:26:12;27.11;40.44
70867;HTU21D;58487;53.474;49.470;2023-07-20T14:28:39;26.38;40.81
70867;HTU21D;58487;53.474;49.470;2023-07-20T14:31:05;25.61;44.20
70867;HTU21D;58487;53.474;49.470;2023-07-20T14:33:32;25.24;45.29
70867;HTU21D;58487;53.474;49.470;2023-07-20T14:35:59;25.13;44.17
70867;HTU21D;58487;53.474;49.470;2023-07-20T14:38:28;25.03;44.84
70867;HTU21D;58487;53.474;49.470;2023-07-20T14:40:54;25.89;43.41
70867;HTU21D;58487;53.474;49.470;2023-07-20T14:43:21;26.85;41.73
70867;HTU21D;58487;53.474;49.470;2023-07-20T14:45:47;27.29;39.45
70867;HTU21D;58487;53.474;49.470;2023-07-20T14:48:13;27.49;40.69
70867;HTU21D;58487;53.474;49.470;2023-07-20T14:50:39;27.60;40.78
70867;HTU21D;58487;53.474;49.470;2023-07-20T14:53:06;27.82;38.36
70867;HTU21D;58487;53.474;49.470;2023-07-20T14:55:33;27.99;35.08
70867;HTU21D;58487;53.474;49.470;2023-07-20T14:58:00;28.02;36.92
70867;HTU21D;58487;53.474;49.470;2023-07-20T15:00:26;27.89;40.00
70867;HTU21D;58487;53.474;49.470;2023-07-20T15:02:52;27.79;40.34
70867;HTU21D;58487;53.474;49.470;2023-07-20T15:05:23;27.74;39.43
70867;HTU21D;58487;53.474;49.470;2023-07-20T15:07:50;27.59;36.86
70867;HTU21D;58487;53.474;49.470;2023-07-20T15:10:16;27.45;39.76
70867;HTU21D;58487;53.474;49.470;2023-07-20T15:12:42;26.79;41.31